Weather at Aviation Ramp Area Heliport

Public forecast

Using degrees Fahrenheit for public forecast. Weather courtesy of forecast.io.

Closest aviation weather report (METAR) to Aviation Ramp Area Heliport

Closest report is Scottsdale Airport, 0.6 nm (1.0 km) ESE. Retrieved 2021/01/22 00:53 UTC (1 hour ago):

KSDL 220053Z 18004KT 10SM SCT080 19/07 A2996 RMK AO2 SLP132 T01940067

Closest aviation forecast (TAF) to Aviation Ramp Area Heliport

Closest forecast is Scottsdale Airport, 0.6 nm (1.0 km) ESE. Retrieved 2021-01-22 00:42 UTC (1 hour ago):

TAF KSDL 212341Z 2200/2224 14005KT P6SM FEW050 SCT070 TEMPO 2200/2203 21006KT FM220300 VRB03KT P6SM SCT050 FM221800 17005KT P6SM FEW050 SCT060